Time;durP1;ratioP1;P1;durP2;ratioP2;P2;SDS_P1;SDS_P2;PMS_P1;PMS_P2;Temp;Humidity;BMP_temperature;BMP_pressure;BME280_temperature;BME280_humidity;BME280_pressure;Samples;Min_cycle;Max_cycle;Signal;HPM_P1;HPM_P2
2023/08/19 00:01:46;;;;;;;23.10;10.32;;;23.80;99.90;;;;;;5072132;28;20076;-72
2023/08/19 00:04:11;;;;;;;19.25;9.68;;;23.80;99.90;;;;;;5071121;28;20113;-72
2023/08/19 00:06:39;;;;;;;19.10;10.43;;;23.80;99.90;;;;;;5071170;28;20031;-72
2023/08/19 00:09:08;;;;;;;21.33;11.13;;;23.80;99.90;;;;;;5071552;28;20055;-73
2023/08/19 00:11:35;;;;;;;19.98;11.65;;;23.80;99.90;;;;;;5073860;28;20020;-73
2023/08/19 00:14:03;;;;;;;27.90;12.20;;;23.70;99.90;;;;;;5070194;28;20035;-73
2023/08/19 00:16:29;;;;;;;18.52;10.95;;;23.70;99.90;;;;;;5074486;28;20037;-73
2023/08/19 00:18:55;;;;;;;19.00;9.27;;;23.70;99.90;;;;;;5071108;28;20413;-73
2023/08/19 00:21:20;;;;;;;18.95;9.20;;;23.60;99.90;;;;;;5068296;28;20029;-72
2023/08/19 00:23:46;;;;;;;21.02;10.80;;;23.60;99.90;;;;;;5069848;28;20049;-72
2023/08/19 00:26:12;;;;;;;21.98;9.73;;;23.60;99.90;;;;;;5074424;28;20013;-72
2023/08/19 00:28:38;;;;;;;19.02;9.85;;;23.70;99.90;;;;;;5071314;28;20074;-72
2023/08/19 00:31:04;;;;;;;24.25;12.30;;;23.60;99.90;;;;;;5070793;28;20089;-72
2023/08/19 00:33:30;;;;;;;21.50;10.52;;;23.60;99.90;;;;;;5067427;28;20052;-72
2023/08/19 00:35:55;;;;;;;21.30;9.85;;;23.60;99.90;;;;;;5070809;28;20040;-72
2023/08/19 00:38:21;;;;;;;21.75;12.82;;;23.60;99.90;;;;;;5068738;28;20166;-72
2023/08/19 00:40:47;;;;;;;22.23;10.15;;;23.60;99.90;;;;;;5070198;28;20388;-72
2023/08/19 00:43:12;;;;;;;24.15;10.93;;;23.60;99.90;;;;;;5068317;28;20063;-73
2023/08/19 00:45:42;;;;;;;21.02;10.77;;;23.50;99.90;;;;;;5070298;28;20031;-73
2023/08/19 00:48:08;;;;;;;19.58;11.07;;;23.50;99.90;;;;;;5067286;28;20028;-73
2023/08/19 00:50:35;;;;;;;28.73;11.40;;;23.50;99.90;;;;;;5070730;28;20036;-72
2023/08/19 00:53:01;;;;;;;28.08;12.57;;;23.40;99.90;;;;;;5066047;28;20051;-73
2023/08/19 00:55:27;;;;;;;20.40;10.63;;;23.40;99.90;;;;;;5070472;28;20039;-72
2023/08/19 00:57:53;;;;;;;15.75;10.55;;;23.40;99.90;;;;;;5066475;28;20409;-72
2023/08/19 01:00:19;;;;;;;21.08;11.00;;;23.30;99.90;;;;;;5064560;28;20106;-72
2023/08/19 01:02:44;;;;;;;21.13;11.05;;;23.30;99.90;;;;;;5059649;28;20025;-72
2023/08/19 01:05:11;;;;;;;19.25;11.15;;;23.30;99.90;;;;;;5070595;28;20507;-73
2023/08/19 01:07:51;;;;;;;16.90;9.90;;;23.30;99.90;;;;;;5066286;28;20396;-72
2023/08/19 01:10:27;;;;;;;23.80;11.40;;;23.30;99.90;;;;;;5051325;28;20041;-72
2023/08/19 01:13:03;;;;;;;23.77;10.88;;;23.30;99.90;;;;;;5066901;28;20043;-73
2023/08/19 01:15:34;;;;;;;18.38;9.68;;;23.30;99.90;;;;;;5069037;28;20025;-72
2023/08/19 01:18:03;;;;;;;26.00;11.18;;;23.20;99.90;;;;;;5068651;28;20081;-72
2023/08/19 01:20:31;;;;;;;19.55;10.07;;;23.20;99.90;;;;;;5063465;28;20024;-72
2023/08/19 01:23:05;;;;;;;25.15;12.75;;;23.20;99.90;;;;;;5070206;28;20040;-72
2023/08/19 01:25:32;;;;;;;26.48;11.45;;;23.20;99.90;;;;;;5068282;28;20128;-72
2023/08/19 01:28:02;;;;;;;16.30;10.45;;;23.20;99.90;;;;;;5071941;28;20028;-72
2023/08/19 01:30:30;;;;;;;15.18;9.88;;;23.10;99.90;;;;;;5067178;28;20017;-72
2023/08/19 01:32:56;;;;;;;20.67;11.75;;;23.10;99.90;;;;;;5073063;28;20077;-73
2023/08/19 01:35:23;;;;;;;14.05;10.52;;;23.10;99.90;;;;;;5062219;28;20036;-72
2023/08/19 01:38:02;;;;;;;21.05;10.40;;;23.10;99.90;;;;;;5071151;28;20043;-72
2023/08/19 01:40:28;;;;;;;12.90;9.48;;;23.10;99.90;;;;;;5056141;28;20033;-72
2023/08/19 01:42:55;;;;;;;23.00;10.10;;;23.10;99.90;;;;;;5055580;28;20025;-72
2023/08/19 01:45:21;;;;;;;20.83;11.82;;;23.10;99.90;;;;;;5055685;28;20054;-72
2023/08/19 01:47:52;;;;;;;20.33;10.20;;;23.10;99.90;;;;;;5055667;28;20508;-72
2023/08/19 01:50:18;;;;;;;16.15;10.73;;;23.10;99.90;;;;;;5069430;28;20040;-71
2023/08/19 01:52:44;;;;;;;20.38;11.07;;;23.10;99.90;;;;;;5071415;28;20016;-72
2023/08/19 01:55:10;;;;;;;19.33;10.73;;;23.00;99.90;;;;;;5070948;28;20130;-73
2023/08/19 01:57:35;;;;;;;20.42;10.65;;;23.00;99.90;;;;;;5071394;28;20108;-72
2023/08/19 02:00:03;;;;;;;18.50;11.32;;;23.00;99.90;;;;;;5071071;28;20104;-72
2023/08/19 02:02:29;;;;;;;13.07;9.73;;;23.00;99.90;;;;;;5071655;28;20063;-72
2023/08/19 02:04:55;;;;;;;16.48;10.05;;;23.00;99.90;;;;;;5071856;28;20021;-72
2023/08/19 02:07:20;;;;;;;22.85;9.63;;;22.90;99.90;;;;;;5063948;28;20028;-72
2023/08/19 02:09:46;;;;;;;17.33;9.82;;;22.90;99.90;;;;;;5058788;28;20603;-73
2023/08/19 02:12:12;;;;;;;18.95;9.95;;;23.00;99.90;;;;;;5061557;28;20044;-72
2023/08/19 02:14:38;;;;;;;16.15;9.00;;;22.90;99.90;;;;;;5058203;28;20021;-73
2023/08/19 02:17:03;;;;;;;16.77;10.60;;;22.90;99.90;;;;;;5057011;28;20711;-72
2023/08/19 02:19:29;;;;;;;15.25;9.88;;;22.90;99.90;;;;;;5049670;28;20029;-72
2023/08/19 02:21:55;;;;;;;14.68;8.55;;;22.90;99.90;;;;;;5060658;28;20020;-72
2023/08/19 02:24:20;;;;;;;16.85;9.25;;;22.80;99.90;;;;;;5058079;28;20106;-72
2023/08/19 02:26:46;;;;;;;16.60;8.80;;;22.80;99.90;;;;;;5060755;28;20016;-72
2023/08/19 02:29:11;;;;;;;13.65;8.70;;;22.90;99.90;;;;;;5060274;28;20025;-72
2023/08/19 02:31:38;;;;;;;13.75;8.55;;;23.00;99.90;;;;;;5064575;28;20028;-72
2023/08/19 02:34:04;;;;;;;16.33;8.32;;;22.90;99.90;;;;;;5061730;28;20158;-72
2023/08/19 02:36:31;;;;;;;19.15;8.70;;;22.90;99.90;;;;;;5064701;28;20484;-72
2023/08/19 02:38:57;;;;;;;13.07;8.10;;;22.80;99.90;;;;;;5061881;28;20028;-72
2023/08/19 02:41:23;;;;;;;22.33;9.35;;;22.90;99.90;;;;;;5063929;28;20031;-72
2023/08/19 02:43:50;;;;;;;14.38;8.25;;;22.80;99.90;;;;;;5061474;28;20029;-72
2023/08/19 02:46:15;;;;;;;21.33;9.00;;;22.80;99.90;;;;;;5064534;28;20526;-72
2023/08/19 02:48:41;;;;;;;20.13;9.98;;;22.80;99.90;;;;;;5062200;28;20075;-72
2023/08/19 02:51:07;;;;;;;12.88;7.57;;;22.80;99.90;;;;;;5065317;28;20047;-71
2023/08/19 02:53:33;;;;;;;16.70;7.72;;;22.80;99.90;;;;;;5062129;28;20484;-71
2023/08/19 02:55:59;;;;;;;13.05;7.32;;;22.80;99.90;;;;;;5065193;28;20054;-72
2023/08/19 02:58:25;;;;;;;14.98;8.25;;;22.70;99.90;;;;;;5061602;28;20112;-72
2023/08/19 03:00:51;;;;;;;11.82;6.93;;;22.70;99.90;;;;;;5065023;28;20024;-72
2023/08/19 03:03:17;;;;;;;16.75;7.65;;;22.60;99.90;;;;;;5062252;28;20029;-72
2023/08/19 03:05:43;;;;;;;11.40;7.15;;;22.60;99.90;;;;;;5064832;28;20667;-72
2023/08/19 03:08:10;;;;;;;11.07;6.13;;;22.50;99.90;;;;;;5061760;28;20375;-72
2023/08/19 03:10:37;;;;;;;10.65;7.05;;;22.50;99.90;;;;;;5064213;28;20028;-72
2023/08/19 03:13:03;;;;;;;10.13;6.68;;;22.40;99.90;;;;;;5061971;28;20168;-73
2023/08/19 03:15:30;;;;;;;12.90;6.70;;;22.40;99.90;;;;;;5065405;28;20112;-72
2023/08/19 03:17:55;;;;;;;13.65;6.50;;;22.30;99.90;;;;;;5062096;28;20037;-72
2023/08/19 03:20:21;;;;;;;9.43;6.60;;;22.30;99.90;;;;;;5047423;28;20032;-72
2023/08/19 03:22:46;;;;;;;10.48;5.75;;;22.30;99.90;;;;;;5053784;28;20388;-72
2023/08/19 03:25:12;;;;;;;9.30;7.05;;;22.20;99.90;;;;;;5065350;28;20067;-73
2023/08/19 03:27:38;;;;;;;12.63;5.85;;;22.10;99.90;;;;;;5061971;28;20170;-72
2023/08/19 03:30:04;;;;;;;12.05;6.00;;;22.10;99.90;;;;;;5066329;28;20162;-72
2023/08/19 03:32:31;;;;;;;10.35;5.80;;;22.00;99.90;;;;;;5062084;28;20021;-72
2023/08/19 03:34:56;;;;;;;11.00;5.47;;;22.00;99.90;;;;;;5066196;28;20021;-72
2023/08/19 03:37:22;;;;;;;10.52;6.40;;;22.00;99.90;;;;;;5061707;28;20029;-72
2023/08/19 03:39:48;;;;;;;8.63;6.32;;;22.00;99.90;;;;;;5065258;28;20021;-72
2023/08/19 03:42:13;;;;;;;9.20;6.32;;;21.90;99.90;;;;;;5059081;28;20037;-72
2023/08/19 03:44:39;;;;;;;10.13;5.90;;;21.90;99.90;;;;;;5063645;28;20052;-72
2023/08/19 03:47:05;;;;;;;11.00;5.93;;;21.80;99.90;;;;;;5051362;28;20112;-72
2023/08/19 03:49:30;;;;;;;7.45;5.38;;;21.80;99.90;;;;;;5060159;28;20091;-72
2023/08/19 03:51:56;;;;;;;13.13;6.53;;;21.70;99.90;;;;;;5072904;28;20103;-72
2023/08/19 03:54:22;;;;;;;10.77;6.07;;;21.60;99.90;;;;;;5072275;28;20060;-72
2023/08/19 03:56:47;;;;;;;9.15;6.32;;;21.60;99.90;;;;;;5062438;28;20025;-72
2023/08/19 03:59:13;;;;;;;8.40;5.95;;;21.50;99.90;;;;;;5072167;28;20417;-72
2023/08/19 04:01:39;;;;;;;7.00;5.53;;;21.50;99.90;;;;;;5071185;28;20017;-72
2023/08/19 04:04:07;;;;;;;9.15;6.22;;;21.50;99.90;;;;;;5071853;28;20024;-72
2023/08/19 04:06:33;;;;;;;7.03;5.55;;;21.50;99.90;;;;;;5070162;28;20030;-72
2023/08/19 04:08:58;;;;;;;10.27;6.22;;;21.40;99.90;;;;;;5068476;28;20507;-72
2023/08/19 04:11:24;;;;;;;8.52;5.90;;;21.40;99.90;;;;;;5063836;28;20025;-72
2023/08/19 04:13:50;;;;;;;10.30;6.35;;;21.40;99.90;;;;;;5067878;28;20107;-72
2023/08/19 04:16:15;;;;;;;11.15;6.38;;;21.30;99.90;;;;;;5063967;28;20069;-72
2023/08/19 04:18:41;;;;;;;12.85;5.85;;;21.30;99.90;;;;;;5068250;28;20070;-72
2023/08/19 04:21:09;;;;;;;7.97;6.45;;;21.20;99.90;;;;;;5052331;28;20025;-72
2023/08/19 04:23:35;;;;;;;12.45;6.07;;;21.10;99.90;;;;;;5067782;28;20035;-72
2023/08/19 04:26:01;;;;;;;8.43;6.30;;;21.10;99.90;;;;;;5075958;28;20020;-72
2023/08/19 04:28:27;;;;;;;12.05;6.38;;;21.00;99.90;;;;;;5074681;28;20024;-72
2023/08/19 04:31:05;;;;;;;7.40;5.45;;;21.00;99.90;;;;;;5076222;28;20040;-72
2023/08/19 04:33:31;;;;;;;11.48;6.57;;;21.00;99.90;;;;;;5073842;28;20097;-72
2023/08/19 04:35:57;;;;;;;16.70;7.40;;;20.90;99.90;;;;;;5075514;28;20027;-71
2023/08/19 04:38:23;;;;;;;8.55;5.95;;;20.90;99.90;;;;;;5074235;28;20111;-73
2023/08/19 04:40:50;;;;;;;11.70;5.93;;;20.90;99.90;;;;;;5075639;28;20043;-72
2023/08/19 04:43:16;;;;;;;7.60;5.80;;;20.90;99.90;;;;;;5074329;28;20021;-72
2023/08/19 04:45:42;;;;;;;9.82;6.13;;;20.80;99.90;;;;;;5074330;28;20028;-72
2023/08/19 04:48:08;;;;;;;8.15;6.05;;;20.90;99.90;;;;;;5074848;28;20029;-72
2023/08/19 04:50:33;;;;;;;9.43;6.03;;;21.00;99.90;;;;;;5075681;28;20500;-72
2023/08/19 04:52:59;;;;;;;13.88;6.30;;;20.90;99.90;;;;;;5073631;28;20031;-72
2023/08/19 04:55:26;;;;;;;9.93;5.70;;;21.00;99.90;;;;;;5075631;28;20025;-72
2023/08/19 04:57:52;;;;;;;8.90;5.75;;;21.00;99.90;;;;;;5074169;28;20036;-72
2023/08/19 05:00:18;;;;;;;8.63;5.80;;;21.00;99.90;;;;;;5074164;28;20545;-72
2023/08/19 05:02:43;;;;;;;8.30;5.00;;;21.10;99.90;;;;;;5071193;28;20037;-72
2023/08/19 05:05:09;;;;;;;11.88;5.43;;;21.10;99.90;;;;;;5065479;28;20104;-72
2023/08/19 05:07:35;;;;;;;10.73;6.22;;;21.20;99.90;;;;;;5065447;28;20028;-72
2023/08/19 05:10:00;;;;;;;8.73;4.78;;;21.30;99.90;;;;;;5073656;28;20020;-72
2023/08/19 05:12:26;;;;;;;6.75;5.63;;;21.40;99.90;;;;;;5070891;28;20108;-72
2023/08/19 05:14:52;;;;;;;9.80;6.03;;;21.50;99.90;;;;;;5073656;28;20024;-72
2023/08/19 05:17:18;;;;;;;6.82;5.70;;;21.50;99.90;;;;;;5073429;28;20029;-72
2023/08/19 05:19:44;;;;;;;13.77;5.50;;;21.50;99.90;;;;;;5075059;28;20024;-72
2023/08/19 05:22:10;;;;;;;7.63;5.25;;;21.50;99.90;;;;;;5066847;28;20393;-72
2023/08/19 05:24:36;;;;;;;7.80;4.93;;;21.50;99.90;;;;;;5074113;28;20040;-73
2023/08/19 05:27:02;;;;;;;9.13;5.15;;;21.60;99.90;;;;;;5070962;28;20055;-72
2023/08/19 05:29:28;;;;;;;10.63;6.18;;;21.60;99.90;;;;;;5065829;28;20024;-72
2023/08/19 05:31:55;;;;;;;6.63;4.90;;;21.60;99.90;;;;;;5074058;28;20025;-72
2023/08/19 05:34:21;;;;;;;7.70;4.15;;;21.70;99.90;;;;;;5074885;28;20017;-71
2023/08/19 05:36:47;;;;;;;6.75;4.65;;;21.70;99.90;;;;;;5073409;28;20033;-72
2023/08/19 05:39:13;;;;;;;7.07;5.00;;;21.90;99.90;;;;;;5073030;28;20024;-72
2023/08/19 05:41:38;;;;;;;6.57;4.72;;;21.90;99.90;;;;;;5067074;28;20024;-72
2023/08/19 05:44:05;;;;;;;7.95;5.22;;;22.00;99.90;;;;;;5069192;28;20019;-72
2023/08/19 05:46:31;;;;;;;7.55;4.90;;;22.00;99.90;;;;;;5066377;28;20599;-72
2023/08/19 05:48:56;;;;;;;5.15;4.65;;;22.10;99.90;;;;;;5070158;28;20107;-72
2023/08/19 05:51:22;;;;;;;14.60;6.03;;;22.20;99.90;;;;;;5067250;28;20021;-72
2023/08/19 05:53:47;;;;;;;7.03;5.20;;;22.20;99.90;;;;;;5069325;28;20085;-73
2023/08/19 05:56:13;;;;;;;9.38;4.82;;;22.20;99.90;;;;;;5067369;28;20496;-72
2023/08/19 05:58:39;;;;;;;7.28;5.03;;;22.30;99.90;;;;;;5057109;28;20025;-72
2023/08/19 06:01:08;;;;;;;8.30;5.43;;;22.40;99.90;;;;;;5058955;28;20129;-72
2023/08/19 06:03:34;;;;;;;8.30;5.53;;;22.50;99.90;;;;;;5057137;28;20037;-72
2023/08/19 06:06:05;;;;;;;12.68;5.65;;;22.50;99.90;;;;;;5058678;28;20029;-72
2023/08/19 06:08:30;;;;;;;8.43;5.45;;;22.50;99.90;;;;;;5056632;28;20026;-72
2023/08/19 06:11:06;;;;;;;8.60;5.03;;;22.60;99.90;;;;;;5056948;28;20406;-72
2023/08/19 06:13:35;;;;;;;7.95;5.15;;;22.70;99.90;;;;;;5056870;28;20025;-72
2023/08/19 06:16:03;;;;;;;10.48;5.63;;;22.80;99.90;;;;;;5056826;28;20039;-72
2023/08/19 06:18:29;;;;;;;7.45;4.70;;;22.90;99.90;;;;;;5059308;28;20063;-72
2023/08/19 06:20:56;;;;;;;10.88;5.90;;;23.00;99.90;;;;;;5056541;28;20033;-72
2023/08/19 06:23:22;;;;;;;8.68;5.07;;;23.10;99.90;;;;;;5058758;28;20057;-72
2023/08/19 06:25:50;;;;;;;9.18;5.00;;;23.20;99.90;;;;;;5058210;28;20040;-73
2023/08/19 06:28:19;;;;;;;7.68;4.32;;;23.40;99.90;;;;;;5059431;28;20072;-72
2023/08/19 06:30:46;;;;;;;7.70;4.63;;;23.50;99.90;;;;;;5046910;28;20033;-73
2023/08/19 06:33:12;;;;;;;9.25;5.47;;;23.70;99.90;;;;;;5058670;28;20021;-72
2023/08/19 06:35:38;;;;;;;9.05;4.85;;;23.80;99.90;;;;;;5057048;28;20485;-72
2023/08/19 06:38:13;;;;;;;8.23;5.68;;;23.90;99.90;;;;;;5058013;28;20110;-73
2023/08/19 06:40:49;;;;;;;7.70;4.55;;;24.00;99.90;;;;;;5055558;28;20025;-73
2023/08/19 06:43:16;;;;;;;12.25;5.80;;;24.10;99.90;;;;;;5045593;28;20063;-72
2023/08/19 06:45:43;;;;;;;8.18;4.47;;;24.10;99.90;;;;;;5056770;28;20033;-72
2023/08/19 06:48:10;;;;;;;9.48;4.82;;;24.20;99.90;;;;;;5058768;28;20385;-71
2023/08/19 06:50:36;;;;;;;11.90;5.05;;;24.20;99.90;;;;;;5055565;28;20029;-71
2023/08/19 06:53:04;;;;;;;9.20;4.57;;;24.30;99.90;;;;;;5055489;28;20157;-72
2023/08/19 06:55:30;;;;;;;8.48;5.00;;;24.30;99.90;;;;;;5070001;28;20016;-70
2023/08/19 06:58:06;;;;;;;6.43;4.78;;;24.40;99.90;;;;;;5066645;28;20051;-71
2023/08/19 07:00:33;;;;;;;9.48;5.60;;;24.60;99.90;;;;;;5060215;28;20037;-72
2023/08/19 07:03:01;;;;;;;7.28;4.95;;;24.70;99.90;;;;;;5065512;28;20047;-71
2023/08/19 07:05:30;;;;;;;9.13;5.50;;;24.80;99.90;;;;;;5062979;28;20029;-72
2023/08/19 07:08:01;;;;;;;8.52;4.80;;;24.90;99.90;;;;;;5058820;28;20025;-72
2023/08/19 07:10:27;;;;;;;8.18;5.72;;;25.10;99.90;;;;;;5062431;28;20020;-73
2023/08/19 07:12:53;;;;;;;11.00;4.90;;;25.20;99.90;;;;;;5060868;28;20386;-72
2023/08/19 07:15:19;;;;;;;7.57;4.88;;;25.40;99.90;;;;;;5064913;28;20024;-72
2023/08/19 07:17:47;;;;;;;8.35;5.00;;;25.50;99.90;;;;;;5060930;28;20112;-72
2023/08/19 07:20:16;;;;;;;8.50;4.90;;;25.60;99.90;;;;;;5056897;28;20029;-73
2023/08/19 07:22:43;;;;;;;8.40;5.47;;;25.70;99.90;;;;;;5053255;28;20461;-72
2023/08/19 07:25:10;;;;;;;11.40;4.93;;;25.80;99.90;;;;;;5072712;28;20064;-73
2023/08/19 07:27:36;;;;;;;8.48;5.63;;;25.80;99.90;;;;;;5072230;28;20032;-73
2023/08/19 07:30:03;;;;;;;10.18;6.03;;;25.90;99.90;;;;;;5074827;28;20055;-72
2023/08/19 07:32:30;;;;;;;12.15;6.10;;;25.90;99.90;;;;;;5073346;28;20029;-73
2023/08/19 07:34:56;;;;;;;9.10;5.07;;;26.10;99.90;;;;;;5074874;28;20098;-72
2023/08/19 07:37:22;;;;;;;11.35;6.15;;;26.10;99.90;;;;;;5075452;28;20029;-72
2023/08/19 07:39:47;;;;;;;8.60;6.13;;;26.10;99.90;;;;;;5073354;28;20032;-73
2023/08/19 07:42:13;;;;;;;9.05;6.70;;;26.10;99.90;;;;;;5070290;28;20037;-72
2023/08/19 07:44:39;;;;;;;11.93;6.43;;;26.10;99.90;;;;;;5071914;28;20055;-73
2023/08/19 07:47:04;;;;;;;13.25;6.43;;;26.20;99.90;;;;;;5069234;28;20027;-73
2023/08/19 07:49:30;;;;;;;9.98;6.13;;;26.10;99.90;;;;;;5072344;28;20024;-72
2023/08/19 07:51:56;;;;;;;15.05;6.82;;;25.90;99.90;;;;;;5069877;28;20020;-72
2023/08/19 07:54:22;;;;;;;12.43;6.68;;;26.00;99.90;;;;;;5072203;28;20028;-73
2023/08/19 07:56:51;;;;;;;8.20;5.90;;;25.90;99.90;;;;;;5054019;28;20362;-72
2023/08/19 07:59:17;;;;;;;12.40;6.80;;;25.90;99.90;;;;;;5050345;28;20047;-73
2023/08/19 08:01:43;;;;;;;12.18;6.43;;;26.00;99.90;;;;;;5063363;28;20419;-73
2023/08/19 08:04:08;;;;;;;11.73;6.97;;;25.90;99.90;;;;;;5055995;28;20112;-73
2023/08/19 08:06:34;;;;;;;12.55;7.60;;;26.00;99.90;;;;;;5057725;28;20470;-72
2023/08/19 08:09:00;;;;;;;11.77;7.80;;;25.90;99.90;;;;;;5057127;28;20033;-72
2023/08/19 08:11:26;;;;;;;15.20;7.82;;;25.90;99.90;;;;;;5056912;28;20021;-73
2023/08/19 08:13:51;;;;;;;13.27;7.70;;;25.70;99.90;;;;;;5055944;28;20078;-73
2023/08/19 08:16:17;;;;;;;13.65;8.07;;;25.50;99.90;;;;;;5056656;28;20033;-71
2023/08/19 08:18:42;;;;;;;14.50;7.25;;;25.40;99.90;;;;;;5057586;28;20033;-72
2023/08/19 08:21:08;;;;;;;16.60;7.88;;;25.50;99.90;;;;;;5053193;28;20017;-72
2023/08/19 08:23:34;;;;;;;13.23;7.75;;;25.50;99.90;;;;;;5057503;28;20057;-73
2023/08/19 08:25:59;;;;;;;16.88;8.15;;;25.60;99.90;;;;;;5055942;28;20033;-72
2023/08/19 08:28:27;;;;;;;20.05;8.52;;;25.70;99.90;;;;;;5054179;28;20120;-72
2023/08/19 08:30:53;;;;;;;11.38;8.00;;;25.80;99.90;;;;;;5057484;28;20029;-73
2023/08/19 08:33:20;;;;;;;12.63;8.27;;;25.90;99.90;;;;;;5057979;28;20108;-72
2023/08/19 08:35:45;;;;;;;16.30;8.20;;;26.00;99.90;;;;;;5060557;28;20078;-72
2023/08/19 08:38:11;;;;;;;11.02;7.75;;;26.30;99.90;;;;;;5054446;28;20080;-72
2023/08/19 08:40:37;;;;;;;12.75;7.30;;;26.30;99.90;;;;;;5067430;28;20881;-72
2023/08/19 08:43:03;;;;;;;10.80;7.53;;;26.40;99.90;;;;;;5062396;28;20061;-73
2023/08/19 08:45:31;;;;;;;13.13;8.80;;;26.50;99.90;;;;;;5059525;28;20024;-76
2023/08/19 08:47:58;;;;;;;14.20;8.15;;;26.50;99.90;;;;;;5062394;28;20019;-75
2023/08/19 08:50:25;;;;;;;16.50;7.78;;;26.70;99.90;;;;;;5059970;28;20013;-75
2023/08/19 08:52:51;;;;;;;16.67;9.63;;;26.70;99.90;;;;;;5062673;28;20020;-74
2023/08/19 08:55:17;;;;;;;12.10;8.48;;;26.70;99.90;;;;;;5059843;28;20017;-73
2023/08/19 08:57:43;;;;;;;17.83;8.75;;;26.70;99.90;;;;;;5068306;28;20419;-73
2023/08/19 09:00:12;;;;;;;13.65;8.73;;;26.70;99.90;;;;;;5056139;28;20069;-74
2023/08/19 09:02:44;;;;;;;14.45;8.75;;;26.80;99.90;;;;;;5069149;28;20401;-74
2023/08/19 09:05:12;;;;;;;15.77;8.93;;;27.00;99.90;;;;;;5074933;28;20049;-75
2023/08/19 09:07:39;;;;;;;16.58;9.40;;;26.90;99.90;;;;;;5065821;28;20044;-73
2023/08/19 09:10:18;;;;;;;14.27;9.40;;;26.80;99.90;;;;;;5072734;28;20496;-75
2023/08/19 09:12:49;;;;;;;13.45;9.23;;;26.70;99.90;;;;;;5074169;28;20137;-74
2023/08/19 09:15:17;;;;;;;17.05;9.40;;;26.80;99.90;;;;;;5074492;28;20119;-74
2023/08/19 09:17:44;;;;;;;13.63;8.48;;;26.70;99.90;;;;;;5072339;28;20013;-74
2023/08/19 09:20:12;;;;;;;20.92;9.15;;;26.80;99.90;;;;;;5067901;28;20111;-74
2023/08/19 09:22:42;;;;;;;13.68;8.38;;;26.80;99.90;;;;;;5062261;28;20036;-74
2023/08/19 09:25:13;;;;;;;11.77;8.97;;;27.00;99.90;;;;;;5070775;28;20047;-74
2023/08/19 09:27:38;;;;;;;19.10;9.73;;;27.20;99.90;;;;;;5069010;28;20048;-74
2023/08/19 09:30:05;;;;;;;16.75;9.25;;;27.20;99.90;;;;;;5070422;28;20031;-74
2023/08/19 09:32:31;;;;;;;14.60;9.82;;;26.90;99.90;;;;;;5065193;28;20396;-74
2023/08/19 09:35:08;;;;;;;16.65;9.60;;;27.00;99.90;;;;;;5072852;28;20024;-74
2023/08/19 09:37:35;;;;;;;14.13;8.80;;;26.90;99.90;;;;;;5066670;28;20075;-75
2023/08/19 09:40:10;;;;;;;12.85;9.27;;;27.10;99.90;;;;;;5072214;28;20040;-74
2023/08/19 09:42:37;;;;;;;15.77;8.93;;;27.30;99.90;;;;;;5066192;28;20025;-74
2023/08/19 09:45:04;;;;;;;12.07;8.63;;;27.40;99.90;;;;;;5061987;28;20017;-75
2023/08/19 09:47:51;;;;;;;32.70;19.42;;;27.20;99.90;;;;;;5061285;28;20543;-74
2023/08/19 09:50:19;;;;;;;18.40;11.30;;;27.40;99.90;;;;;;5050810;28;20104;-72
2023/08/19 09:52:58;;;;;;;13.20;10.20;;;27.50;99.90;;;;;;5056005;28;20036;-74
2023/08/19 09:55:28;;;;;;;16.20;11.17;;;27.50;99.90;;;;;;5056242;28;20017;-74
2023/08/19 09:57:54;;;;;;;17.55;10.35;;;27.80;99.90;;;;;;5055287;28;20024;-73
2023/08/19 10:00:21;;;;;;;17.65;11.15;;;27.80;99.90;;;;;;5054875;28;20394;-74
2023/08/19 10:02:47;;;;;;;14.13;11.00;;;27.70;99.90;;;;;;5056818;28;20510;-74
2023/08/19 10:05:12;;;;;;;13.27;10.98;;;27.60;99.90;;;;;;5056134;28;20047;-74
2023/08/19 10:07:44;;;;;;;23.67;12.00;;;27.40;99.90;;;;;;5061578;28;20061;-74
2023/08/19 10:10:13;;;;;;;18.73;12.10;;;27.40;99.90;;;;;;5049034;28;20053;-74
2023/08/19 10:12:40;;;;;;;17.88;9.95;;;27.60;99.90;;;;;;5068044;28;20039;-74
2023/08/19 10:15:12;;;;;;;13.93;10.82;;;27.60;99.90;;;;;;5071775;28;20032;-74
2023/08/19 10:17:40;;;;;;;16.50;11.35;;;27.70;99.90;;;;;;5057736;28;20091;-76
2023/08/19 10:20:11;;;;;;;15.23;11.30;;;27.70;99.90;;;;;;5059496;28;20162;-74
2023/08/19 10:22:41;;;;;;;22.17;13.27;;;27.70;99.90;;;;;;5050889;28;20028;-75
2023/08/19 10:25:12;;;;;;;19.55;11.73;;;27.70;99.90;;;;;;5066665;28;20052;-74
2023/08/19 10:27:38;;;;;;;14.48;11.75;;;27.70;99.90;;;;;;5072874;28;20683;-73
2023/08/19 10:30:22;;;;;;;16.05;11.70;;;27.70;99.90;;;;;;5072281;28;20036;-77
2023/08/19 10:32:48;;;;;;;20.17;13.05;;;27.60;99.90;;;;;;5053509;28;20503;-75
2023/08/19 10:35:14;;;;;;;17.40;12.55;;;27.50;99.90;;;;;;5069841;28;20029;-74
2023/08/19 10:37:45;;;;;;;18.20;11.35;;;27.40;99.90;;;;;;5060693;28;20100;-74
2023/08/19 10:40:11;;;;;;;16.10;11.90;;;27.70;99.90;;;;;;5063377;28;20112;-74
2023/08/19 10:42:40;;;;;;;19.08;13.02;;;27.80;99.90;;;;;;5061313;28;20028;-74
2023/08/19 10:45:17;;;;;;;20.85;13.65;;;27.80;99.90;;;;;;5043948;28;20036;-74
2023/08/19 10:47:43;;;;;;;13.60;11.60;;;28.10;99.90;;;;;;5048937;28;20116;-75
2023/08/19 10:50:10;;;;;;;21.13;13.70;;;28.20;99.90;;;;;;5058109;28;20401;-74
2023/08/19 10:52:57;;;;;;;17.33;11.15;;;28.50;99.90;;;;;;5071786;28;20024;-76
2023/08/19 10:55:23;;;;;;;13.23;10.43;;;28.50;99.90;;;;;;5065722;28;20029;-76
2023/08/19 10:57:49;;;;;;;19.73;10.32;;;28.40;99.90;;;;;;5065476;28;20097;-75
2023/08/19 11:00:15;;;;;;;15.13;10.43;;;28.20;99.90;;;;;;5057373;28;20033;-75
2023/08/19 11:02:41;;;;;;;14.07;10.45;;;28.20;99.90;;;;;;5048857;28;20032;-78
2023/08/19 11:05:07;;;;;;;14.60;10.98;;;28.30;99.90;;;;;;5062318;28;20029;-76
2023/08/19 11:07:33;;;;;;;13.30;9.55;;;28.20;99.90;;;;;;5065068;28;20028;-75
2023/08/19 11:09:59;;;;;;;15.32;10.05;;;28.30;99.90;;;;;;5061945;28;20078;-75
2023/08/19 11:12:29;;;;;;;13.38;9.73;;;28.50;99.90;;;;;;5072198;28;20016;-78
2023/08/19 11:14:55;;;;;;;15.35;9.90;;;28.70;99.90;;;;;;5074888;28;20035;-75
2023/08/19 11:17:47;;;;;;;13.57;10.38;;;28.60;99.90;;;;;;5071379;28;20021;-75
2023/08/19 11:20:14;;;;;;;12.65;9.57;;;28.50;99.90;;;;;;5065443;28;20160;-83
2023/08/19 11:22:48;;;;;;;16.52;10.02;;;28.30;99.90;;;;;;5071180;28;20028;-77
2023/08/19 11:25:14;;;;;;;16.17;9.98;;;28.30;99.90;;;;;;5073334;28;20060;-76
2023/08/19 11:27:40;;;;;;;14.27;9.48;;;28.30;99.90;;;;;;5053136;28;20043;-75
2023/08/19 11:30:08;;;;;;;15.30;9.43;;;28.40;99.90;;;;;;5071688;28;20473;-75
2023/08/19 11:32:35;;;;;;;20.60;12.60;;;28.40;99.90;;;;;;5072158;28;20396;-76
2023/08/19 11:35:01;;;;;;;10.93;9.80;;;28.70;99.90;;;;;;5073568;28;20029;-77
2023/08/19 11:37:30;;;;;;;10.00;8.95;;;28.80;99.90;;;;;;5076618;28;20042;-75
2023/08/19 11:39:56;;;;;;;15.40;9.65;;;28.80;99.90;;;;;;5076553;28;20514;-75
2023/08/19 11:42:22;;;;;;;11.82;9.38;;;28.90;99.90;;;;;;5077620;28;20056;-78
2023/08/19 11:44:48;;;;;;;12.32;9.27;;;28.80;99.90;;;;;;5074517;28;20401;-76
2023/08/19 11:47:14;;;;;;;17.95;10.05;;;28.80;99.90;;;;;;5073856;28;20117;-76
2023/08/19 11:49:43;;;;;;;15.70;10.30;;;29.00;99.90;;;;;;5066625;28;20477;-77
2023/08/19 11:52:09;;;;;;;16.40;9.73;;;29.20;99.90;;;;;;5063146;28;20024;-77
2023/08/19 11:54:35;;;;;;;14.63;9.90;;;29.40;99.90;;;;;;5059986;28;20021;-77
2023/08/19 11:57:02;;;;;;;19.35;12.63;;;29.40;99.90;;;;;;5066728;28;20468;-77
2023/08/19 11:59:33;;;;;;;18.35;10.38;;;29.50;99.90;;;;;;5066508;28;20115;-77
2023/08/19 12:02:08;;;;;;;15.48;9.75;;;29.70;99.90;;;;;;5067533;28;20016;-76
2023/08/19 12:04:34;;;;;;;13.07;9.07;;;29.80;99.90;;;;;;5065292;28;20055;-76
2023/08/19 12:07:03;;;;;;;12.02;9.63;;;29.70;99.90;;;;;;5061759;28;20035;-76
2023/08/19 12:09:35;;;;;;;18.02;9.18;;;29.70;99.90;;;;;;5060926;28;20025;-76
2023/08/19 12:12:11;;;;;;;13.65;9.10;;;29.80;99.90;;;;;;5062165;28;20028;-77
2023/08/19 12:14:37;;;;;;;12.00;8.85;;;29.80;99.90;;;;;;5050195;28;20059;-76
2023/08/19 12:17:04;;;;;;;16.30;9.85;;;30.00;99.90;;;;;;5063559;28;20056;-77
2023/08/19 12:19:30;;;;;;;14.40;8.75;;;30.10;99.90;;;;;;5059004;28;20044;-76
2023/08/19 12:21:56;;;;;;;13.35;8.45;;;30.30;99.90;;;;;;5068897;28;20024;-75
2023/08/19 12:24:21;;;;;;;16.50;9.18;;;30.50;99.90;;;;;;5064162;28;20610;-77
2023/08/19 12:26:47;;;;;;;14.43;8.75;;;30.60;99.90;;;;;;5065505;28;20095;-77
2023/08/19 12:29:13;;;;;;;13.85;8.65;;;30.70;99.90;;;;;;5059658;28;20029;-76
2023/08/19 12:31:38;;;;;;;12.93;7.47;;;30.90;99.90;;;;;;5071495;28;20028;-76
2023/08/19 12:34:04;;;;;;;14.45;8.48;;;31.10;99.90;;;;;;5066298;28;20096;-77
2023/08/19 12:36:30;;;;;;;10.45;8.57;;;31.20;99.90;;;;;;5070866;28;20112;-77